Billings, MT (59101)

2:26 PM MDT on March 27, 2017 (GMT -0600)
Yellowstone RV Campground | | Change Station

Elev 3120 ft 45.76 °N, 108.48 °W | Updated 5 seconds ago

Partly Cloudy
Partly Cloudy
62.1 °F
Feels Like 62.1 °F
N
0.4
Wind Variable Wind from SW
Gusts 2.5 mph

Today
High -- | Low -- °F
--% Chance of Precip.
Yesterday
High -- | Low -- °F
Precip. -- in
Pressure 29.81 in
Visibility 10.0 miles
Clouds Scattered Clouds 6000 ft
Mostly Cloudy 10000 ft
Dew Point 33 °F
Humidity 34%
Rainfall 0.00 in
Snow Depth Not available.
7:02 AM 7:36 PM
Waning Crescent, 0% visible
METAR KBIL 271953Z 00000KT 10SM SCT060 BKN100 14/M02 A2982 RMK AO2 SLP093 SHRA DSNT SE-S W-N T01391022
Pressure 29.81 in
Visibility 10.0 miles
Clouds Scattered Clouds 6000 ft
Mostly Cloudy 10000 ft
Dew Point 33 °F
Humidity 34%
Rainfall 0.00 in
Snow Depth Not available.
7:02 AM 7:36 PM
Waning Crescent, 0% visible
METAR KBIL 271953Z 00000KT 10SM SCT060 BKN100 14/M02 A2982 RMK AO2 SLP093 SHRA DSNT SE-S W-N T01391022

Get Severe Weather Alerts

Thanks for signing up!

Be on the lookout for a verification email in your inbox.

You'll start receiving the daily forecast at 8 AM.

×

10-Day Weather Forecast

Almanac

Astronomy

Mar. 27, 2017 Rise Set
Actual Time
Civil Twilight
Nautical Twilight
Astronomical Twilight
Moon
Length of Visible Light
Length of Day
Tomorrow will be .
, % of the Moon is Illuminated

Today's Extremes

State Highs State Lows

Community

WunderPhotos

Upload Photos

1,962,540 photos uploaded!

WunderBlog® & News

Nearby

Air Quality

  Air Quality AQ Index Pollutant
Not available.

Snow Depth

Station Depth Elevation

Earthquake Activity

City Distance Mag. Time & Date
Minimum magnitude displayed is 2.5.

Earthquake Activity

City Distance Mag. Time & Date
Minimum magnitude displayed is 2.5.

Coastal Water Temperatures

Place Temperature

Stations

Nearby Weather Stations

Station Location Temp. Windchill Dew Point Humidity Wind Precip. Elev Updated Type
                   

Watches & Warnings

There are currently no watches in effect.